American Canyon, California
Current Conditions -  °F | °C
As of 6:10 AM on Monday 22 Dec 2014 (Local Time) from KAPC Reporting Station
Haze Haze  
Wind Chill: 54°   Ceiling: 200
Heat Index: 54°   Visibility: 4mi
Dew Point: 54°   Wind: 6mph
Humidity: 100%   Direction: 320°NW
Pressure: 30.27"   Gusts: NA
Location:  38.17°N, 122.25°W
Report Text: KAPC 221410Z AUTO 32005KT 4SM BR OVC002 12/12 A3027 RMK AO2 T01220122
Loading
Personal Weather Stations






























Interactive Weather Map New forecast layout! Learn more

10-Day Weather Forecast

Advertisements
Track Severe Weather on mobile